Time;durP1;ratioP1;P1;durP2;ratioP2;P2;SDS_P1;SDS_P2;PMS_P1;PMS_P2;Temp;Humidity;BMP_temperature;BMP_pressure;BME280_temperature;BME280_humidity;BME280_pressure;Samples;Min_cycle;Max_cycle;Signal;HPM_P1;HPM_P2
2023/01/03 00:00:20;;;;;;;2.23;0.93;;;7.60;99.90;;;;;;5013648;28;20422;-79
2023/01/03 00:02:45;;;;;;;2.17;0.80;;;7.60;99.90;;;;;;5013317;28;20193;-79
2023/01/03 00:05:11;;;;;;;4.23;1.00;;;7.60;99.90;;;;;;5013471;28;20294;-78
2023/01/03 00:07:37;;;;;;;1.30;0.60;;;7.60;99.90;;;;;;5013735;28;20708;-79
2023/01/03 00:10:08;;;;;;;1.90;0.80;;;7.60;99.90;;;;;;5013052;28;20203;-78
2023/01/03 00:12:35;;;;;;;1.70;0.80;;;7.60;99.90;;;;;;5013036;28;20191;-79
2023/01/03 00:15:00;;;;;;;1.60;0.80;;;7.60;99.90;;;;;;5013485;28;20557;-79
2023/01/03 00:17:27;;;;;;;2.13;0.73;;;7.60;99.90;;;;;;5000313;28;20974;-78
2023/01/03 00:19:52;;;;;;;2.27;0.80;;;7.50;99.90;;;;;;5013501;28;20671;-79
2023/01/03 00:22:18;;;;;;;1.40;0.70;;;7.60;99.90;;;;;;5013044;28;20474;-79
2023/01/03 00:24:46;;;;;;;1.90;0.70;;;7.60;99.90;;;;;;5013366;28;20545;-79
2023/01/03 00:27:12;;;;;;;1.47;0.80;;;7.60;99.90;;;;;;4999719;28;20594;-79
2023/01/03 00:29:38;;;;;;;1.50;0.80;;;7.60;99.90;;;;;;5003369;28;20422;-79
2023/01/03 00:32:04;;;;;;;1.30;0.60;;;7.60;99.90;;;;;;5011574;28;20459;-78
2023/01/03 00:34:30;;;;;;;1.10;0.50;;;7.60;99.90;;;;;;5001710;28;20184;-78
2023/01/03 00:36:56;;;;;;;1.50;0.70;;;7.60;99.90;;;;;;5011690;28;20433;-78
2023/01/03 00:39:22;;;;;;;1.40;0.70;;;7.60;99.90;;;;;;5001463;28;20516;-78
2023/01/03 00:41:48;;;;;;;1.73;1.10;;;7.60;99.90;;;;;;4999322;28;20423;-78
2023/01/03 00:44:14;;;;;;;2.30;0.77;;;7.60;99.90;;;;;;5004051;28;20489;-79
2023/01/03 00:46:40;;;;;;;1.27;0.57;;;7.60;99.90;;;;;;4979255;28;20960;-78
2023/01/03 00:49:06;;;;;;;1.80;0.70;;;7.60;99.90;;;;;;5012445;28;20452;-79
2023/01/03 00:51:34;;;;;;;1.30;0.80;;;7.60;99.90;;;;;;5012356;28;20929;-78
2023/01/03 00:54:01;;;;;;;2.90;1.10;;;7.60;99.90;;;;;;5012850;28;20446;-78
2023/01/03 00:56:29;;;;;;;1.50;0.63;;;7.60;99.90;;;;;;5012510;28;20437;-78
2023/01/03 00:58:56;;;;;;;1.97;0.70;;;7.50;99.90;;;;;;5002706;28;20429;-78
2023/01/03 01:01:24;;;;;;;1.20;0.60;;;7.50;99.90;;;;;;5009590;28;20449;-78
2023/01/03 01:03:53;;;;;;;1.60;0.80;;;7.50;99.90;;;;;;5002207;28;20437;-78
2023/01/03 01:06:22;;;;;;;1.57;0.63;;;7.50;99.90;;;;;;5010176;28;21020;-78
2023/01/03 01:08:49;;;;;;;6.30;1.23;;;7.50;99.90;;;;;;5011848;28;20422;-78
2023/01/03 01:11:16;;;;;;;1.30;0.50;;;7.50;99.90;;;;;;5012459;28;20915;-78
2023/01/03 01:13:43;;;;;;;1.10;0.50;;;7.50;99.90;;;;;;5011988;28;20583;-78
2023/01/03 01:16:14;;;;;;;2.60;0.80;;;7.50;99.90;;;;;;5012496;28;20414;-78
2023/01/03 01:18:42;;;;;;;1.30;0.50;;;7.50;99.90;;;;;;5000634;28;20520;-78
2023/01/03 01:21:16;;;;;;;5.70;1.23;;;7.40;99.90;;;;;;5005756;28;20434;-78
2023/01/03 01:23:42;;;;;;;1.70;0.63;;;7.40;99.90;;;;;;5005653;28;20445;-78
2023/01/03 01:26:11;;;;;;;1.20;0.50;;;7.40;99.90;;;;;;4998436;28;20469;-78
2023/01/03 01:28:37;;;;;;;1.20;0.50;;;7.40;99.90;;;;;;5007474;28;20426;-78
2023/01/03 01:31:04;;;;;;;1.10;0.40;;;7.40;99.90;;;;;;5012253;28;20424;-78
2023/01/03 01:33:32;;;;;;;1.20;0.60;;;7.40;99.90;;;;;;4998757;28;20246;-78
2023/01/03 01:36:03;;;;;;;1.53;0.60;;;7.30;99.90;;;;;;5012293;28;20418;-78
2023/01/03 01:38:29;;;;;;;1.10;0.50;;;7.30;99.90;;;;;;4997456;28;20486;-78
2023/01/03 01:40:55;;;;;;;1.13;0.47;;;7.20;99.90;;;;;;5001238;28;20465;-78
2023/01/03 01:46:24;;;;;;;1.30;0.50;;;7.10;99.90;;;;;;4994760;28;20249;-78
2023/01/03 01:48:55;;;;;;;2.67;0.70;;;7.10;99.90;;;;;;4994990;28;20402;-78
2023/01/03 01:51:23;;;;;;;1.30;0.53;;;7.10;99.90;;;;;;5012276;28;20410;-77
2023/01/03 01:53:52;;;;;;;1.20;0.50;;;7.10;99.90;;;;;;5012397;28;20889;-78
2023/01/03 01:56:22;;;;;;;1.10;0.40;;;7.10;99.90;;;;;;5012939;28;20552;-78
2023/01/03 01:58:51;;;;;;;1.10;0.40;;;7.10;99.90;;;;;;5009902;28;20945;-77
2023/01/03 02:01:19;;;;;;;1.17;0.50;;;7.10;99.90;;;;;;5015249;28;20430;-78
2023/01/03 02:03:55;;;;;;;1.30;0.60;;;7.10;99.90;;;;;;5017878;28;20431;-78
2023/01/03 02:06:22;;;;;;;1.20;0.50;;;7.00;99.90;;;;;;5016465;28;20625;-78
2023/01/03 02:08:47;;;;;;;1.10;0.40;;;7.00;99.90;;;;;;5015404;28;20425;-78
2023/01/03 02:11:28;;;;;;;1.50;0.60;;;7.00;99.90;;;;;;5015868;28;20413;-78
2023/01/03 02:14:05;;;;;;;1.47;0.70;;;7.00;99.90;;;;;;5013897;28;20175;-78
2023/01/03 02:17:04;;;;;;;1.10;0.50;;;7.00;99.90;;;;;;5002699;28;20434;-78
2023/01/03 02:20:00;;;;;;;3.20;0.90;;;7.00;99.90;;;;;;5015831;28;20414;-78
2023/01/03 02:22:31;;;;;;;1.60;0.73;;;7.00;99.90;;;;;;5005148;28;20451;-78
2023/01/03 02:25:32;;;;;;;1.60;0.60;;;7.00;99.90;;;;;;4996019;28;21087;-78
2023/01/03 02:28:10;;;;;;;1.23;0.53;;;7.00;99.90;;;;;;4988049;28;20802;-78
2023/01/03 02:30:44;;;;;;;2.80;0.63;;;6.90;99.90;;;;;;5012320;28;20417;-78
2023/01/03 02:33:22;;;;;;;1.20;0.50;;;6.90;99.90;;;;;;5004527;28;20484;-78
2023/01/03 02:35:53;;;;;;;1.20;0.50;;;6.80;99.90;;;;;;5008940;28;20414;-78
2023/01/03 02:38:56;;;;;;;1.20;0.50;;;6.80;99.90;;;;;;5008714;28;20486;-78
2023/01/03 02:41:44;;;;;;;2.40;0.60;;;6.80;99.90;;;;;;5015138;28;20414;-78
2023/01/03 02:44:16;;;;;;;2.17;0.60;;;6.80;99.90;;;;;;5014982;28;20793;-78
2023/01/03 02:46:50;;;;;;;1.20;0.40;;;6.80;99.90;;;;;;4981641;28;20825;-78
2023/01/03 02:49:26;;;;;;;1.10;0.50;;;6.70;99.90;;;;;;5015165;28;20421;-78
2023/01/03 02:52:02;;;;;;;1.20;0.70;;;6.70;99.90;;;;;;5014805;28;20891;-78
2023/01/03 02:54:42;;;;;;;1.20;0.50;;;6.70;99.90;;;;;;5001506;28;20449;-78
2023/01/03 02:57:19;;;;;;;1.33;0.57;;;6.70;99.90;;;;;;4992441;28;20418;-78
2023/01/03 03:00:09;;;;;;;1.20;0.50;;;6.70;99.90;;;;;;5001333;28;20551;-78
2023/01/03 03:02:37;;;;;;;1.10;0.43;;;6.70;99.90;;;;;;5007210;28;20461;-78
2023/01/03 03:05:09;;;;;;;1.20;0.60;;;6.60;99.90;;;;;;5014301;28;20425;-78
2023/01/03 03:07:40;;;;;;;1.10;0.50;;;6.60;99.90;;;;;;5001402;28;20459;-78
2023/01/03 03:13:13;;;;;;;1.33;0.70;;;6.60;99.90;;;;;;5013766;28;20421;-77
2023/01/03 03:15:46;;;;;;;1.10;0.50;;;6.60;99.90;;;;;;5001199;28;20896;-78
2023/01/03 03:18:48;;;;;;;1.10;0.43;;;6.60;99.90;;;;;;5014677;28;20390;-78
2023/01/03 03:26:58;;;;;;;1.10;0.50;;;6.40;99.90;;;;;;5014428;28;20488;-78
2023/01/03 03:29:26;;;;;;;1.93;0.80;;;6.40;99.90;;;;;;5000723;28;20438;-78
2023/01/03 03:31:53;;;;;;;1.10;0.50;;;6.30;99.90;;;;;;5001058;28;20465;-78
2023/01/03 03:34:24;;;;;;;1.97;0.60;;;6.30;99.90;;;;;;5001181;28;20425;-78
2023/01/03 03:37:06;;;;;;;1.53;0.60;;;6.30;99.90;;;;;;5014308;28;20458;-78
2023/01/03 03:45:34;;;;;;;1.40;0.60;;;6.20;99.90;;;;;;5003703;28;20441;-78
2023/01/03 03:48:12;;;;;;;2.90;0.50;;;6.20;99.90;;;;;;5000984;28;20462;-78
2023/01/03 03:50:48;;;;;;;1.30;0.60;;;6.10;99.90;;;;;;5005876;28;20891;-78
2023/01/03 03:53:16;;;;;;;1.43;0.87;;;6.10;99.90;;;;;;5009873;28;20409;-78
2023/01/03 03:56:06;;;;;;;2.40;1.00;;;6.10;99.90;;;;;;5013794;28;20891;-78
2023/01/03 03:58:50;;;;;;;1.80;0.83;;;6.10;99.90;;;;;;5010483;28;20525;-78
2023/01/03 04:01:18;;;;;;;2.33;0.70;;;6.00;99.90;;;;;;5013729;28;20469;-77
2023/01/03 04:03:46;;;;;;;1.67;0.60;;;6.00;99.90;;;;;;5013487;28;20418;-78
2023/01/03 04:06:21;;;;;;;1.50;0.70;;;5.90;99.90;;;;;;5013535;28;20468;-78
2023/01/03 04:08:47;;;;;;;1.40;0.70;;;5.80;99.90;;;;;;5012915;28;20422;-78
2023/01/03 04:11:13;;;;;;;1.20;0.60;;;5.70;99.90;;;;;;5013424;28;20421;-78
2023/01/03 04:13:38;;;;;;;1.40;0.70;;;5.70;99.90;;;;;;5002731;28;20737;-77
2023/01/03 04:16:05;;;;;;;1.20;0.50;;;5.70;99.90;;;;;;4997027;28;20643;-78
2023/01/03 04:18:31;;;;;;;1.20;0.60;;;5.60;99.90;;;;;;5003590;28;20195;-78
2023/01/03 04:20:57;;;;;;;1.10;0.50;;;5.50;99.90;;;;;;5004609;28;20423;-78
2023/01/03 04:23:22;;;;;;;1.70;0.73;;;5.40;99.90;;;;;;5011919;28;20205;-78
2023/01/03 04:25:48;;;;;;;1.77;0.97;;;5.40;99.90;;;;;;4996738;28;20190;-77
2023/01/03 04:28:15;;;;;;;1.20;0.53;;;5.40;99.90;;;;;;4996653;28;20208;-77
2023/01/03 04:30:40;;;;;;;1.20;0.60;;;5.30;99.90;;;;;;5009569;28;20211;-77
2023/01/03 04:33:06;;;;;;;1.70;0.60;;;5.20;99.90;;;;;;5012776;28;20462;-77
2023/01/03 04:35:32;;;;;;;1.20;0.60;;;5.10;99.90;;;;;;5013011;28;20215;-78
2023/01/03 04:37:58;;;;;;;3.93;1.37;;;5.10;99.90;;;;;;5003503;28;20580;-77
2023/01/03 04:40:24;;;;;;;1.40;0.73;;;5.00;99.90;;;;;;5009575;28;20580;-78
2023/01/03 04:45:34;;;;;;;1.70;0.70;;;5.10;99.90;;;;;;5012860;28;20433;-77
2023/01/03 04:48:00;;;;;;;2.47;0.63;;;5.10;99.90;;;;;;5004687;28;20463;-77
2023/01/03 04:50:26;;;;;;;1.30;0.60;;;5.00;99.90;;;;;;5012680;28;20623;-77
2023/01/03 04:52:51;;;;;;;1.83;0.80;;;5.00;99.90;;;;;;5006888;28;20487;-77
2023/01/03 04:55:17;;;;;;;1.30;0.70;;;5.00;99.90;;;;;;5012693;28;20179;-77
2023/01/03 04:57:42;;;;;;;3.97;1.10;;;5.00;99.90;;;;;;5012264;28;20199;-77
2023/01/03 05:00:09;;;;;;;1.20;0.70;;;5.00;99.90;;;;;;4999617;28;20205;-77
2023/01/03 05:02:34;;;;;;;1.77;0.80;;;5.00;99.90;;;;;;5012524;28;20191;-78
2023/01/03 05:05:00;;;;;;;2.67;1.00;;;5.00;99.90;;;;;;5012459;28;20422;-77
2023/01/03 05:07:29;;;;;;;1.50;0.87;;;5.00;99.90;;;;;;5012776;28;20207;-77
2023/01/03 05:09:54;;;;;;;2.73;1.17;;;5.10;99.90;;;;;;4985485;28;20179;-78
2023/01/03 05:12:20;;;;;;;3.50;1.50;;;5.10;99.90;;;;;;5011813;28;20799;-78
2023/01/03 05:14:46;;;;;;;2.77;1.27;;;5.10;99.90;;;;;;4992636;28;20180;-77
2023/01/03 05:17:11;;;;;;;1.40;0.60;;;5.10;99.90;;;;;;5006154;28;20647;-78
2023/01/03 05:25:48;;;;;;;3.77;0.80;;;5.10;99.90;;;;;;5012377;28;20325;-78
2023/01/03 05:27:52;;;;;;;1.97;1.07;;;4.90;99.90;;;;;;4987261;28;20801;-78
2023/01/03 05:30:18;;;;;;;2.00;0.87;;;4.90;99.90;;;;;;4998974;28;20521;-78
2023/01/03 05:32:43;;;;;;;1.57;0.80;;;4.80;99.90;;;;;;5008071;28;20182;-77
2023/01/03 05:35:09;;;;;;;2.00;0.80;;;4.90;99.90;;;;;;5012191;28;20186;-78
2023/01/03 05:37:34;;;;;;;2.73;0.90;;;5.00;99.90;;;;;;5011214;28;20191;-78
2023/01/03 05:40:00;;;;;;;2.20;0.90;;;4.90;99.90;;;;;;5012134;28;20202;-78
2023/01/03 05:42:26;;;;;;;2.23;1.27;;;4.90;99.90;;;;;;4993565;28;20180;-78
2023/01/03 05:44:51;;;;;;;1.77;0.97;;;4.80;99.90;;;;;;4987326;28;20298;-78
2023/01/03 05:47:17;;;;;;;3.20;1.50;;;4.80;99.90;;;;;;4986467;28;20285;-78
2023/01/03 05:49:42;;;;;;;1.90;1.20;;;4.90;99.90;;;;;;5012121;28;20650;-78
2023/01/03 05:52:08;;;;;;;2.43;1.63;;;4.80;99.90;;;;;;5004303;28;20176;-77
2023/01/03 05:54:34;;;;;;;1.70;1.00;;;4.80;99.90;;;;;;5006532;28;20266;-78
2023/01/03 05:56:59;;;;;;;5.27;1.47;;;4.70;99.90;;;;;;5012294;28;20187;-78
2023/01/03 05:59:25;;;;;;;2.80;1.37;;;4.70;99.90;;;;;;5009408;28;20187;-78
2023/01/03 06:01:51;;;;;;;5.87;1.53;;;4.60;99.90;;;;;;5011696;28;20183;-77
2023/01/03 06:04:17;;;;;;;2.60;1.30;;;4.60;99.90;;;;;;5011735;28;20425;-78
2023/01/03 06:06:42;;;;;;;2.70;1.00;;;4.60;99.90;;;;;;4999150;28;20206;-78
2023/01/03 06:09:08;;;;;;;1.90;0.60;;;4.60;99.90;;;;;;5010705;28;20238;-78
2023/01/03 06:11:34;;;;;;;1.50;0.90;;;4.50;99.90;;;;;;5011740;28;20180;-77
2023/01/03 06:13:59;;;;;;;1.80;1.00;;;4.40;99.90;;;;;;5011180;28;20270;-78
2023/01/03 06:19:09;;;;;;;4.10;1.97;;;4.40;99.90;;;;;;5008043;28;20218;-78
2023/01/03 06:21:35;;;;;;;3.90;1.77;;;4.40;99.90;;;;;;5011250;28;20462;-77
2023/01/03 06:24:02;;;;;;;4.07;1.40;;;4.40;99.90;;;;;;4997064;28;20247;-78
2023/01/03 06:26:28;;;;;;;1.53;0.83;;;4.50;99.90;;;;;;5011828;28;20492;-78
2023/01/03 06:28:54;;;;;;;2.00;0.90;;;4.40;99.90;;;;;;5002163;28;20414;-78
2023/01/03 06:31:20;;;;;;;2.03;1.13;;;4.40;99.90;;;;;;5011587;28;20183;-78
2023/01/03 06:33:46;;;;;;;1.77;0.70;;;4.30;99.90;;;;;;4998401;28;20549;-78
2023/01/03 06:36:16;;;;;;;2.43;0.70;;;4.30;99.90;;;;;;5011722;28;20189;-78
2023/01/03 06:38:42;;;;;;;2.60;0.97;;;4.20;99.90;;;;;;4998567;28;20803;-78
2023/01/03 06:41:07;;;;;;;2.50;1.10;;;4.20;99.90;;;;;;5011640;28;20420;-78
2023/01/03 06:43:34;;;;;;;5.67;1.30;;;4.20;99.90;;;;;;5007521;28;20190;-78
2023/01/03 06:54:18;;;;;;;1.87;0.97;;;4.20;99.90;;;;;;5015102;28;20420;-78
2023/01/03 06:56:44;;;;;;;4.87;2.10;;;4.10;99.90;;;;;;5001652;28;20418;-78
2023/01/03 06:59:10;;;;;;;2.30;1.30;;;4.00;99.90;;;;;;5011895;28;20974;-78
2023/01/03 07:01:35;;;;;;;4.60;1.80;;;4.00;99.90;;;;;;5014383;28;20266;-78
2023/01/03 07:04:01;;;;;;;4.07;2.07;;;4.00;99.90;;;;;;5014631;28;20279;-78
2023/01/03 07:06:27;;;;;;;2.30;1.07;;;4.00;99.90;;;;;;5010029;28;20214;-78
2023/01/03 07:08:54;;;;;;;6.10;1.20;;;4.00;99.90;;;;;;5005619;28;20418;-78
2023/01/03 07:11:22;;;;;;;2.33;1.40;;;4.00;99.90;;;;;;4991314;28;20483;-78
2023/01/03 07:14:01;;;;;;;3.50;1.63;;;4.00;99.90;;;;;;4998812;28;20422;-77
2023/01/03 07:16:32;;;;;;;2.10;1.10;;;4.00;99.90;;;;;;5005286;28;20426;-78
2023/01/03 07:18:58;;;;;;;1.50;0.83;;;3.90;99.90;;;;;;4983217;28;20478;-78
2023/01/03 07:21:26;;;;;;;3.63;1.90;;;3.90;99.90;;;;;;5009303;28;20457;-78
2023/01/03 07:23:55;;;;;;;3.00;1.33;;;3.90;99.90;;;;;;5014627;28;20890;-78
2023/01/03 07:26:23;;;;;;;6.57;2.00;;;3.90;99.90;;;;;;5014269;28;20537;-78
2023/01/03 07:28:49;;;;;;;4.33;1.63;;;3.80;99.90;;;;;;5011965;28;20445;-78
2023/01/03 07:31:14;;;;;;;8.70;2.77;;;3.70;99.90;;;;;;5003282;28;20425;-76
2023/01/03 07:33:40;;;;;;;5.23;2.33;;;3.60;99.90;;;;;;5015364;28;20418;-76
2023/01/03 07:36:08;;;;;;;2.13;1.47;;;3.60;99.90;;;;;;5014572;28;20191;-78
2023/01/03 07:38:35;;;;;;;5.27;1.80;;;3.60;99.90;;;;;;5001516;28;20609;-78
2023/01/03 07:41:01;;;;;;;2.57;1.40;;;3.70;99.90;;;;;;5005428;28;20423;-78
2023/01/03 07:43:36;;;;;;;1.97;1.50;;;3.70;99.90;;;;;;5008983;28;20877;-78
2023/01/03 07:46:15;;;;;;;2.73;1.60;;;3.80;99.90;;;;;;4997964;28;20450;-78
2023/01/03 07:48:41;;;;;;;1.80;1.10;;;3.80;99.90;;;;;;5003051;28;20581;-78
2023/01/03 07:51:08;;;;;;;1.83;1.13;;;3.90;99.90;;;;;;5006114;28;20818;-78
2023/01/03 07:53:35;;;;;;;3.67;1.57;;;3.90;99.90;;;;;;5008277;28;20906;-78
2023/01/03 07:56:06;;;;;;;2.63;1.33;;;4.00;99.90;;;;;;5001403;28;20419;-78
2023/01/03 07:58:32;;;;;;;2.13;1.13;;;4.00;99.90;;;;;;5000430;28;20427;-78
2023/01/03 08:01:16;;;;;;;4.93;1.67;;;3.90;99.90;;;;;;5006502;28;20806;-78
2023/01/03 08:03:42;;;;;;;1.97;0.90;;;3.90;99.90;;;;;;5013055;28;20179;-78
2023/01/03 08:06:10;;;;;;;1.57;0.77;;;4.00;99.90;;;;;;5011072;28;20746;-78
2023/01/03 08:08:36;;;;;;;1.53;0.70;;;4.10;99.90;;;;;;5001839;28;20418;-78
2023/01/03 08:13:47;;;;;;;1.73;0.80;;;4.20;99.90;;;;;;5012098;28;20479;-78
2023/01/03 08:16:14;;;;;;;1.10;0.53;;;4.20;99.90;;;;;;4998354;28;20472;-78
2023/01/03 08:18:41;;;;;;;3.83;0.90;;;4.30;99.90;;;;;;5013270;28;20878;-78
2023/01/03 08:21:09;;;;;;;1.60;0.60;;;4.30;99.90;;;;;;4998261;28;20836;-78
2023/01/03 08:23:35;;;;;;;1.10;0.50;;;4.30;99.90;;;;;;5011400;28;20771;-78
2023/01/03 08:26:07;;;;;;;1.70;0.73;;;4.40;99.90;;;;;;5012971;28;20421;-78
2023/01/03 08:28:33;;;;;;;1.60;0.60;;;4.40;99.90;;;;;;5012716;28;20425;-78
2023/01/03 08:31:02;;;;;;;2.17;1.03;;;4.50;99.90;;;;;;5012475;28;20484;-78
2023/01/03 08:33:34;;;;;;;1.60;1.10;;;4.50;99.90;;;;;;5012489;28;20493;-78
2023/01/03 08:36:04;;;;;;;1.70;0.90;;;4.60;99.90;;;;;;5012819;28;20952;-77
2023/01/03 08:38:35;;;;;;;1.43;0.77;;;4.60;99.90;;;;;;4996707;28;21010;-78
2023/01/03 08:41:04;;;;;;;1.57;0.80;;;4.60;99.90;;;;;;5012679;28;20903;-77
2023/01/03 08:43:34;;;;;;;1.40;0.63;;;4.70;99.90;;;;;;5012040;28;20422;-78
2023/01/03 08:46:04;;;;;;;1.77;1.10;;;4.80;99.90;;;;;;5007613;28;21101;-79
2023/01/03 08:48:30;;;;;;;1.57;0.80;;;4.80;99.90;;;;;;4999436;28;20430;-78
2023/01/03 08:50:56;;;;;;;1.43;0.67;;;4.80;99.90;;;;;;5012540;28;20441;-79
2023/01/03 08:53:23;;;;;;;1.73;0.80;;;4.80;99.90;;;;;;5011958;28;20186;-78
2023/01/03 08:55:49;;;;;;;1.60;0.80;;;4.90;99.90;;;;;;5012457;28;20183;-78
2023/01/03 08:58:14;;;;;;;1.67;0.73;;;5.00;99.90;;;;;;5003177;28;20418;-78
2023/01/03 09:00:40;;;;;;;10.30;4.50;;;5.00;99.90;;;;;;5011621;28;20642;-78
2023/01/03 09:03:05;;;;;;;6.40;2.93;;;5.00;99.90;;;;;;5011876;28;20194;-78
2023/01/03 09:05:31;;;;;;;6.23;2.13;;;5.00;99.90;;;;;;5012265;28;20636;-78
2023/01/03 09:07:57;;;;;;;3.07;1.50;;;5.00;99.90;;;;;;5012137;28;20210;-78
2023/01/03 09:10:23;;;;;;;2.97;1.60;;;5.10;99.90;;;;;;5010627;28;20202;-78
2023/01/03 09:12:49;;;;;;;2.00;1.30;;;5.10;99.90;;;;;;5011854;28;20620;-78
2023/01/03 09:15:14;;;;;;;2.77;1.77;;;5.10;99.90;;;;;;5011834;28;20432;-78
2023/01/03 09:17:43;;;;;;;2.97;1.60;;;5.20;99.90;;;;;;5002328;28;20621;-78
2023/01/03 09:20:12;;;;;;;5.33;2.67;;;5.20;99.90;;;;;;5011957;28;20211;-78
2023/01/03 09:22:38;;;;;;;5.90;2.47;;;5.30;99.90;;;;;;5010374;28;20453;-78
2023/01/03 09:25:04;;;;;;;6.03;2.30;;;5.30;99.90;;;;;;5011932;28;20472;-78
2023/01/03 09:27:30;;;;;;;3.63;2.10;;;5.40;99.90;;;;;;4994112;28;20219;-78
2023/01/03 09:29:55;;;;;;;4.67;2.43;;;5.50;99.90;;;;;;5003033;28;20418;-78
2023/01/03 09:32:21;;;;;;;4.60;2.60;;;5.60;99.90;;;;;;5011261;28;20206;-78
2023/01/03 09:34:47;;;;;;;2.43;1.53;;;5.70;99.90;;;;;;5012418;28;20191;-77
2023/01/03 09:37:12;;;;;;;4.10;2.27;;;5.70;99.90;;;;;;5011958;28;20187;-77
2023/01/03 09:39:39;;;;;;;2.60;1.53;;;5.80;99.90;;;;;;5011871;28;20521;-77
2023/01/03 09:44:52;;;;;;;2.03;0.90;;;6.00;99.90;;;;;;5007017;28;20510;-77
2023/01/03 09:47:22;;;;;;;1.80;1.00;;;6.10;99.90;;;;;;5008805;28;20462;-77
2023/01/03 09:49:49;;;;;;;4.83;1.40;;;6.10;99.90;;;;;;4995018;28;20439;-77
2023/01/03 10:04:11;;;;;;;2.43;1.30;;;6.60;99.90;;;;;;4994003;28;20409;-77
2023/01/03 10:07:01;;;;;;;4.80;1.73;;;6.70;99.90;;;;;;4999799;28;20838;-77
2023/01/03 10:09:47;;;;;;;2.20;1.03;;;6.80;99.90;;;;;;5004345;28;20424;-77
2023/01/03 10:12:47;;;;;;;1.70;0.80;;;6.80;99.90;;;;;;5010844;28;20410;-77
2023/01/03 10:15:36;;;;;;;4.60;2.53;;;6.90;99.90;;;;;;4994293;28;20514;-77
2023/01/03 10:18:29;;;;;;;5.23;2.70;;;7.00;99.90;;;;;;4984967;28;20418;-77
2023/01/03 10:21:18;;;;;;;8.67;4.27;;;7.00;99.90;;;;;;4990263;28;20415;-77
2023/01/03 10:23:47;;;;;;;10.10;2.90;;;7.10;99.90;;;;;;5004681;28;20477;-78
2023/01/03 10:26:12;;;;;;;6.20;1.87;;;7.10;99.90;;;;;;5014707;28;21041;-78
2023/01/03 10:28:44;;;;;;;3.53;1.83;;;7.20;99.90;;;;;;5014497;28;20414;-77
2023/01/03 10:31:13;;;;;;;3.13;2.13;;;7.30;99.90;;;;;;5014387;28;20847;-77
2023/01/03 10:33:40;;;;;;;13.40;2.20;;;7.40;99.90;;;;;;5014059;28;20413;-77
2023/01/03 10:36:07;;;;;;;4.43;1.43;;;7.50;99.90;;;;;;5005866;28;20426;-77
2023/01/03 10:38:33;;;;;;;2.93;1.87;;;7.50;99.90;;;;;;5006315;28;20429;-77
2023/01/03 10:41:01;;;;;;;3.80;1.80;;;7.40;99.90;;;;;;5014710;28;20444;-77
2023/01/03 10:43:27;;;;;;;5.37;2.23;;;7.50;99.90;;;;;;5013503;28;20874;-77
2023/01/03 10:45:54;;;;;;;5.97;1.97;;;7.50;99.90;;;;;;5000031;28;20415;-77
2023/01/03 10:48:20;;;;;;;5.00;1.60;;;7.60;99.90;;;;;;5002543;28;20272;-77
2023/01/03 10:50:47;;;;;;;4.63;1.70;;;7.70;99.90;;;;;;5014259;28;20421;-77
2023/01/03 10:53:16;;;;;;;2.57;1.30;;;7.80;99.90;;;;;;5013533;28;20442;-77
2023/01/03 10:55:48;;;;;;;6.27;2.47;;;7.90;99.90;;;;;;5014026;28;20759;-76
2023/01/03 10:58:18;;;;;;;8.60;2.10;;;8.00;99.90;;;;;;5014137;28;20925;-73
2023/01/03 11:00:44;;;;;;;2.93;1.57;;;8.10;99.90;;;;;;5002614;28;20572;-73
2023/01/03 11:03:13;;;;;;;2.00;1.30;;;8.20;99.90;;;;;;5012357;28;20894;-73
2023/01/03 11:05:41;;;;;;;3.53;1.47;;;8.40;99.90;;;;;;5014118;28;20263;-71
2023/01/03 11:08:18;;;;;;;2.80;1.23;;;8.60;99.90;;;;;;5013918;28;20495;-72
2023/01/03 11:10:51;;;;;;;4.63;1.47;;;8.70;99.90;;;;;;5011922;28;20418;-72
2023/01/03 11:13:38;;;;;;;1.93;0.97;;;9.00;99.90;;;;;;5013320;28;20493;-72
2023/01/03 11:16:16;;;;;;;3.00;0.80;;;9.10;99.90;;;;;;4996752;28;20501;-71
2023/01/03 11:18:42;;;;;;;2.60;1.10;;;9.30;99.90;;;;;;5006115;28;20492;-72
2023/01/03 11:21:24;;;;;;;1.93;0.80;;;9.50;99.90;;;;;;5007728;28;20585;-71
2023/01/03 11:23:55;;;;;;;2.30;0.70;;;9.70;99.90;;;;;;5013186;28;20429;-71
2023/01/03 11:26:30;;;;;;;2.23;1.00;;;9.80;99.90;;;;;;5013029;28;20460;-71
2023/01/03 11:29:07;;;;;;;3.20;1.10;;;10.00;99.90;;;;;;5009954;28;20419;-71
2023/01/03 11:31:35;;;;;;;8.20;1.67;;;10.10;99.90;;;;;;4995351;28;20414;-71
2023/01/03 11:34:40;;;;;;;4.60;1.10;;;10.10;99.90;;;;;;5013116;28;20755;-71
2023/01/03 11:37:19;;;;;;;2.40;0.90;;;10.10;99.90;;;;;;5013708;28;20449;-71
2023/01/03 11:39:44;;;;;;;3.43;1.33;;;10.10;99.90;;;;;;5013430;28;20432;-71
2023/01/03 11:42:20;;;;;;;3.00;1.13;;;10.10;99.90;;;;;;5034121;23;20492;-71
2023/01/03 11:45:18;;;;;;;1.40;0.80;;;10.20;99.90;;;;;;5020757;28;20193;-71
2023/01/03 11:47:50;;;;;;;2.10;0.60;;;10.20;99.90;;;;;;5012997;28;20453;-71
2023/01/03 11:50:40;;;;;;;3.83;1.10;;;10.20;99.90;;;;;;5022330;28;20451;-72
2023/01/03 11:53:38;;;;;;;1.30;0.50;;;10.10;99.90;;;;;;5027617;28;20467;-72
2023/01/03 11:56:19;;;;;;;1.20;0.50;;;10.30;99.90;;;;;;5013374;28;20429;-71
2023/01/03 11:59:05;;;;;;;1.77;0.57;;;10.30;99.90;;;;;;5024250;28;20419;-71
2023/01/03 12:01:53;;;;;;;1.87;0.60;;;10.30;99.90;;;;;;5032582;28;20778;-72
2023/01/03 12:04:32;;;;;;;1.10;0.40;;;10.20;99.90;;;;;;5020054;28;20426;-72
2023/01/03 12:07:09;;;;;;;1.23;0.50;;;10.30;99.90;;;;;;5032738;28;20452;-71
2023/01/03 12:09:57;;;;;;;1.30;0.50;;;10.30;99.90;;;;;;5005827;28;20428;-71
2023/01/03 12:12:44;;;;;;;2.80;0.90;;;10.40;99.90;;;;;;5006199;28;20450;-71
2023/01/03 12:15:11;;;;;;;2.23;0.70;;;10.20;99.90;;;;;;5020737;28;20465;-71
2023/01/03 12:18:03;;;;;;;1.20;0.50;;;10.30;99.90;;;;;;5026249;28;20432;-72
2023/01/03 12:20:37;;;;;;;1.40;0.57;;;10.30;99.90;;;;;;5000476;28;20431;-72
2023/01/03 12:23:36;;;;;;;1.30;0.60;;;10.30;99.90;;;;;;5031972;28;20416;-72
2023/01/03 12:26:07;;;;;;;1.40;0.50;;;10.20;99.90;;;;;;5019868;28;20417;-71
2023/01/03 12:28:39;;;;;;;1.63;0.60;;;10.20;99.90;;;;;;5030163;28;20559;-72
2023/01/03 12:31:05;;;;;;;1.37;0.60;;;10.20;99.90;;;;;;5032562;28;20413;-72
2023/01/03 12:34:00;;;;;;;1.30;0.50;;;10.30;99.90;;;;;;5031900;28;20523;-72
2023/01/03 12:36:40;;;;;;;1.57;0.53;;;10.40;99.90;;;;;;5032763;28;20261;-72
2023/01/03 12:39:26;;;;;;;1.20;0.40;;;10.20;99.90;;;;;;5007158;28;20753;-71
2023/01/03 12:42:24;;;;;;;1.40;0.60;;;10.20;99.90;;;;;;5031769;28;20447;-74
2023/01/03 12:45:10;;;;;;;1.50;0.70;;;10.10;99.90;;;;;;4996485;28;20794;-72
2023/01/03 12:47:41;;;;;;;1.60;0.70;;;10.20;99.90;;;;;;5011030;28;20942;-72
2023/01/03 12:50:26;;;;;;;1.20;0.50;;;10.10;99.90;;;;;;5029763;28;20778;-72
2023/01/03 12:53:23;;;;;;;2.27;0.83;;;10.10;99.90;;;;;;5031729;28;20417;-72
2023/01/03 12:56:25;;;;;;;7.27;0.80;;;10.10;99.90;;;;;;5032356;28;20480;-72
2023/01/03 12:59:15;;;;;;;1.90;0.97;;;10.10;99.90;;;;;;5023380;28;20421;-71
2023/01/03 13:01:57;;;;;;;1.73;0.70;;;10.10;99.90;;;;;;5018321;28;20444;-71
2023/01/03 13:04:29;;;;;;;1.40;0.67;;;10.20;99.90;;;;;;5031886;28;20424;-71
2023/01/03 13:07:00;;;;;;;1.20;0.50;;;10.10;99.90;;;;;;5031901;28;20457;-71
2023/01/03 13:09:30;;;;;;;1.40;0.70;;;10.20;99.90;;;;;;5025695;28;20419;-71
2023/01/03 13:12:05;;;;;;;1.97;0.70;;;10.10;99.90;;;;;;5012792;28;20848;-71
2023/01/03 13:14:57;;;;;;;1.77;0.80;;;10.10;99.90;;;;;;5024545;28;20410;-71
2023/01/03 13:17:27;;;;;;;1.47;0.70;;;10.10;99.90;;;;;;5025282;28;20500;-71
2023/01/03 13:20:25;;;;;;;3.10;0.80;;;10.10;99.90;;;;;;5020731;28;20444;-71
2023/01/03 13:22:50;;;;;;;8.60;1.10;;;10.20;99.90;;;;;;4997271;28;20486;-71
2023/01/03 13:25:25;;;;;;;3.53;0.90;;;10.20;99.90;;;;;;5031106;28;20405;-71
2023/01/03 13:27:52;;;;;;;2.00;0.93;;;10.20;99.90;;;;;;5028681;28;20578;-71
2023/01/03 13:30:23;;;;;;;1.20;0.53;;;10.10;99.90;;;;;;5004655;28;20415;-71
2023/01/03 13:32:52;;;;;;;2.93;0.70;;;10.10;99.90;;;;;;5030608;28;20416;-71
2023/01/03 13:35:29;;;;;;;6.03;1.30;;;10.10;99.90;;;;;;5011277;28;20425;-71
2023/01/03 13:37:58;;;;;;;1.93;0.70;;;10.10;99.90;;;;;;5022218;28;20931;-70
2023/01/03 13:40:27;;;;;;;1.20;0.50;;;10.10;99.90;;;;;;5030475;28;20436;-71
2023/01/03 13:43:07;;;;;;;1.20;0.50;;;10.00;99.90;;;;;;5019023;28;20437;-70
2023/01/03 13:45:33;;;;;;;1.70;0.70;;;10.10;99.90;;;;;;5002099;28;21177;-71
2023/01/03 13:48:29;;;;;;;1.90;0.60;;;10.10;99.90;;;;;;5024235;28;20487;-71
2023/01/03 13:51:15;;;;;;;1.40;0.80;;;10.10;99.90;;;;;;5007805;28;20278;-71
2023/01/03 13:54:10;;;;;;;1.60;0.60;;;10.10;99.90;;;;;;5008746;28;20453;-70
2023/01/03 13:56:41;;;;;;;5.07;0.70;;;10.00;99.90;;;;;;4965272;28;20824;-71
2023/01/03 13:59:13;;;;;;;1.20;0.50;;;10.00;99.90;;;;;;5017949;28;20455;-71
2023/01/03 14:01:57;;;;;;;29.03;1.00;;;9.80;99.90;;;;;;5034116;28;21385;-69
2023/01/03 14:04:44;;;;;;;1.27;0.57;;;9.60;99.90;;;;;;5008122;28;20453;-71
2023/01/03 14:07:57;;;;;;;1.50;0.80;;;9.40;99.90;;;;;;5009236;28;20469;-71
2023/01/03 14:10:47;;;;;;;1.43;0.70;;;9.40;99.90;;;;;;5004971;28;20460;-71
2023/01/03 14:13:26;;;;;;;1.30;0.60;;;9.50;99.90;;;;;;5023237;28;20409;-71